Time;durP1;ratioP1;P1;durP2;ratioP2;P2;SDS_P1;SDS_P2;PMS_P1;PMS_P2;Temp;Humidity;BMP_temperature;BMP_pressure;BME280_temperature;BME280_humidity;BME280_pressure;Samples;Min_cycle;Max_cycle;Signal;HPM_P1;HPM_P2
2021/12/06 00:00:39;;;;;;;;;;;;;;;6.34;100.00;92108.97;5066279;28;20418;-85
2021/12/06 00:03:08;;;;;;;;;;;;;;;6.35;100.00;92107.97;5066631;28;19932;-85
2021/12/06 00:05:35;;;;;;;;;;;;;;;6.35;100.00;92107.22;5066291;28;19931;-85
2021/12/06 00:08:02;;;;;;;;;;;;;;;6.31;100.00;92091.56;5066383;28;20343;-85
2021/12/06 00:10:28;;;;;;;;;;;;;;;6.34;100.00;92085.25;5066430;28;20407;-85
2021/12/06 00:12:57;;;;;;;;;;;;;;;6.25;100.00;92090.59;5066376;28;19932;-84
2021/12/06 00:15:23;;;;;;;;;;;;;;;6.10;100.00;92092.69;5066228;28;20892;-84
2021/12/06 00:17:50;;;;;;;;;;;;;;;6.04;100.00;92089.25;5066290;28;19938;-84
2021/12/06 00:20:17;;;;;;;;;;;;;;;6.04;100.00;92098.63;5065856;28;19931;-85
2021/12/06 00:22:43;;;;;;;;;;;;;;;6.03;100.00;92105.53;5066306;28;20003;-85
2021/12/06 00:25:10;;;;;;;;;;;;;;;6.05;100.00;92098.44;5065876;28;19928;-85
2021/12/06 00:27:39;;;;;;;;;;;;;;;6.01;100.00;92087.06;5065983;28;19932;-85
2021/12/06 00:30:10;;;;;;;;;;;;;;;5.99;100.00;92101.78;5065976;28;19932;-85
2021/12/06 00:32:37;;;;;;;;;;;;;;;5.97;100.00;92099.44;5066281;28;19932;-85
2021/12/06 00:35:05;;;;;;;;;;;;;;;5.98;100.00;92113.75;5066213;28;19932;-85
2021/12/06 00:37:41;;;;;;;;;;;;;;;5.97;100.00;92114.75;5066665;28;19936;-84
2021/12/06 00:40:09;;;;;;;;;;;;;;;6.04;100.00;92111.38;5066648;28;19963;-84
2021/12/06 00:42:35;;;;;;;;;;;;;;;6.06;100.00;92105.09;5065973;28;20296;-84
2021/12/06 00:45:03;;;;;;;;;;;;;;;6.11;100.00;92104.50;5065795;28;19939;-85
2021/12/06 00:47:31;;;;;;;;;;;;;;;6.20;100.00;92099.91;5065391;28;19925;-84
2021/12/06 00:49:58;;;;;;;;;;;;;;;6.24;100.00;92106.91;5066177;28;19924;-85
2021/12/06 00:52:24;;;;;;;;;;;;;;;6.27;100.00;92103.94;5065489;28;19939;-85
2021/12/06 00:54:51;;;;;;;;;;;;;;;6.36;100.00;92108.75;5065590;28;19925;-85
2021/12/06 00:57:18;;;;;;;;;;;;;;;6.38;100.00;92104.22;5065836;28;20001;-85
2021/12/06 00:59:46;;;;;;;;;;;;;;;6.34;100.00;92103.88;5065619;28;19924;-85
2021/12/06 01:02:13;;;;;;;;;;;;;;;6.41;100.00;92099.50;5065950;28;20349;-85
2021/12/06 01:04:42;;;;;;;;;;;;;;;6.36;100.00;92085.81;5065758;28;20417;-85
2021/12/06 01:07:08;;;;;;;;;;;;;;;6.29;100.00;92093.50;5065133;28;20023;-85
2021/12/06 01:09:35;;;;;;;;;;;;;;;6.34;100.00;92098.00;5065621;28;19932;-85
2021/12/06 01:12:01;;;;;;;;;;;;;;;6.32;100.00;92097.41;5065171;28;19933;-85
2021/12/06 01:14:28;;;;;;;;;;;;;;;6.38;100.00;92091.47;5065359;28;19928;-84
2021/12/06 01:16:54;;;;;;;;;;;;;;;6.42;100.00;92087.50;5065677;28;19935;-85
2021/12/06 01:19:27;;;;;;;;;;;;;;;6.48;100.00;92078.25;5065604;28;19924;-84
2021/12/06 01:22:07;;;;;;;;;;;;;;;6.51;100.00;92075.25;5065079;28;20342;-85
2021/12/06 01:24:41;;;;;;;;;;;;;;;6.52;100.00;92069.16;5065683;28;20390;-84
2021/12/06 01:27:24;;;;;;;;;;;;;;;6.54;100.00;92065.41;5065123;28;19936;-83
2021/12/06 01:30:15;;;;;;;;;;;;;;;6.45;100.00;92053.94;5064979;28;19932;-84
2021/12/06 01:41:00;;;;;;;;;;;;;;;6.00;100.00;92054.91;5065082;28;20326;-82
2021/12/06 01:43:27;;;;;;;;;;;;;;;6.03;100.00;92056.31;5065521;28;19924;-83
2021/12/06 01:45:54;;;;;;;;;;;;;;;6.04;100.00;92042.56;5065324;28;19929;-85
2021/12/06 01:48:20;;;;;;;;;;;;;;;6.10;100.00;92050.16;5064995;28;19924;-84
2021/12/06 01:50:47;;;;;;;;;;;;;;;6.16;100.00;92040.91;5065332;28;20358;-85
2021/12/06 01:53:14;;;;;;;;;;;;;;;6.17;100.00;92037.34;5065068;28;20410;-85
2021/12/06 01:55:42;;;;;;;;;;;;;;;6.22;100.00;92027.31;5065315;28;19932;-85
2021/12/06 01:58:09;;;;;;;;;;;;;;;6.35;100.00;92023.03;5064751;28;20513;-86
2021/12/06 02:00:38;;;;;;;;;;;;;;;6.45;100.00;92025.09;5067335;28;20380;-86
2021/12/06 02:03:05;;;;;;;;;;;;;;;6.54;100.00;92019.47;5068146;28;19928;-86
2021/12/06 02:05:31;;;;;;;;;;;;;;;6.61;100.00;92027.06;5072163;28;19932;-86
2021/12/06 02:07:58;;;;;;;;;;;;;;;6.64;100.00;92021.53;5073161;28;19935;-86
2021/12/06 02:10:25;;;;;;;;;;;;;;;6.67;100.00;92033.09;5073429;28;20396;-86
2021/12/06 02:12:54;;;;;;;;;;;;;;;6.67;100.00;92031.31;5073470;28;19928;-86
2021/12/06 02:15:34;;;;;;;;;;;;;;;6.63;100.00;92029.41;5073654;28;19925;-86
2021/12/06 02:18:07;;;;;;;;;;;;;;;6.72;100.00;92042.66;5073409;28;19925;-85
2021/12/06 02:20:41;;;;;;;;;;;;;;;6.78;100.00;92039.25;5067631;28;19925;-85
2021/12/06 02:23:09;;;;;;;;;;;;;;;6.73;100.00;92046.75;5062889;28;19928;-85
2021/12/06 02:25:36;;;;;;;;;;;;;;;6.75;100.00;92043.00;5061883;28;19956;-86
2021/12/06 02:28:03;;;;;;;;;;;;;;;6.80;100.00;92035.47;5062807;28;19925;-85
2021/12/06 02:30:29;;;;;;;;;;;;;;;6.62;100.00;92028.63;5062292;28;19932;-85
2021/12/06 02:32:56;;;;;;;;;;;;;;;6.59;100.00;92031.63;5061283;28;19933;-84
2021/12/06 02:35:23;;;;;;;;;;;;;;;6.60;100.00;92034.94;5062992;28;19986;-84
2021/12/06 02:37:51;;;;;;;;;;;;;;;6.64;100.00;92036.84;5062341;28;20085;-84
2021/12/06 02:40:20;;;;;;;;;;;;;;;6.70;100.00;92037.75;5061166;28;19948;-84
2021/12/06 02:42:47;;;;;;;;;;;;;;;6.75;100.00;92040.44;5062074;28;19928;-84
2021/12/06 02:45:16;;;;;;;;;;;;;;;6.76;100.00;92036.13;5063051;28;19928;-86
2021/12/06 02:47:42;;;;;;;;;;;;;;;6.79;100.00;92035.69;5061089;28;20015;-86
2021/12/06 02:50:10;;;;;;;;;;;;;;;6.81;100.00;92042.13;5061488;28;19928;-86
2021/12/06 02:52:38;;;;;;;;;;;;;;;6.81;100.00;92031.16;5063113;28;20015;-86
2021/12/06 02:55:12;;;;;;;;;;;;;;;6.84;100.00;92032.50;5061278;28;20295;-86
2021/12/06 02:57:45;;;;;;;;;;;;;;;6.86;100.00;92035.63;5060587;28;20044;-86
2021/12/06 03:00:15;;;;;;;;;;;;;;;6.85;100.00;92034.06;5060977;28;19928;-87
2021/12/06 03:02:41;;;;;;;;;;;;;;;6.86;100.00;92033.84;5060551;28;19933;-87
2021/12/06 03:05:08;;;;;;;;;;;;;;;6.88;100.00;92025.97;5061698;28;20380;-87
2021/12/06 03:07:36;;;;;;;;;;;;;;;6.86;100.00;92022.84;5062123;28;19925;-85
2021/12/06 03:10:04;;;;;;;;;;;;;;;6.90;100.00;92019.63;5060741;28;19925;-86
2021/12/06 03:12:32;;;;;;;;;;;;;;;6.91;100.00;92017.88;5060563;28;19951;-84
2021/12/06 03:15:01;;;;;;;;;;;;;;;6.94;100.00;92013.13;5072310;28;19928;-84
2021/12/06 03:17:31;;;;;;;;;;;;;;;6.95;100.00;92022.31;5072249;28;19936;-87
2021/12/06 03:19:58;;;;;;;;;;;;;;;7.01;100.00;92017.34;5072396;28;19951;-87
2021/12/06 03:22:24;;;;;;;;;;;;;;;7.00;100.00;92019.16;5072120;28;19925;-87
2021/12/06 03:24:51;;;;;;;;;;;;;;;7.01;100.00;92009.69;5072177;28;19924;-87
2021/12/06 03:27:18;;;;;;;;;;;;;;;7.02;100.00;92016.34;5071961;28;19933;-87
2021/12/06 03:29:45;;;;;;;;;;;;;;;7.02;100.00;92001.81;5072247;28;19942;-87
2021/12/06 03:32:13;;;;;;;;;;;;;;;7.02;100.00;92001.03;5071978;28;20048;-85
2021/12/06 03:34:41;;;;;;;;;;;;;;;7.01;100.00;91991.81;5072093;28;20311;-85
2021/12/06 03:37:08;;;;;;;;;;;;;;;7.00;100.00;91993.59;5071892;28;19928;-85
2021/12/06 03:39:36;;;;;;;;;;;;;;;6.99;100.00;91997.13;5072012;28;20011;-83
2021/12/06 03:42:04;;;;;;;;;;;;;;;7.00;100.00;92010.69;5071182;28;19924;-84
2021/12/06 03:44:31;;;;;;;;;;;;;;;6.98;100.00;92003.25;5071296;28;20288;-87
2021/12/06 03:47:00;;;;;;;;;;;;;;;7.02;100.00;92006.13;5070845;28;19928;-86
2021/12/06 03:49:29;;;;;;;;;;;;;;;7.04;100.00;92006.72;5071760;28;20282;-84
2021/12/06 03:51:55;;;;;;;;;;;;;;;7.01;100.00;92009.69;5071622;28;19931;-85
2021/12/06 03:54:24;;;;;;;;;;;;;;;7.00;100.00;92010.69;5071389;28;20368;-84
2021/12/06 03:56:50;;;;;;;;;;;;;;;7.05;100.00;92001.38;5071066;28;19928;-84
2021/12/06 03:59:17;;;;;;;;;;;;;;;7.06;100.00;92008.06;5071027;28;19925;-84
2021/12/06 04:01:44;;;;;;;;;;;;;;;7.08;100.00;92003.50;5071270;28;20390;-85
2021/12/06 04:04:11;;;;;;;;;;;;;;;7.09;100.00;92002.50;5071368;28;19972;-84
2021/12/06 04:06:40;;;;;;;;;;;;;;;7.12;100.00;91995.41;5071481;28;19928;-84
2021/12/06 04:09:07;;;;;;;;;;;;;;;7.12;100.00;92006.41;5067829;28;20283;-84
2021/12/06 04:11:34;;;;;;;;;;;;;;;7.07;100.00;92007.06;5068979;28;19928;-85
2021/12/06 04:14:01;;;;;;;;;;;;;;;7.06;100.00;92007.25;5070437;28;19924;-83
2021/12/06 04:16:28;;;;;;;;;;;;;;;7.09;100.00;92001.75;5070598;28;19928;-83
2021/12/06 04:18:54;;;;;;;;;;;;;;;7.15;100.00;92002.63;5070305;28;19924;-83
2021/12/06 04:21:21;;;;;;;;;;;;;;;7.12;100.00;92003.84;5070703;28;19928;-83
2021/12/06 04:23:49;;;;;;;;;;;;;;;6.97;100.00;92006.78;5070186;28;19928;-83
2021/12/06 04:26:16;;;;;;;;;;;;;;;6.90;100.00;92008.66;5069637;28;19932;-84
2021/12/06 04:28:48;;;;;;;;;;;;;;;6.88;100.00;92003.78;5070496;28;19924;-84
2021/12/06 04:31:14;;;;;;;;;;;;;;;6.86;100.00;91998.13;5070534;28;19930;-83
2021/12/06 04:33:41;;;;;;;;;;;;;;;6.70;100.00;91988.50;5070209;28;20282;-83
2021/12/06 04:36:08;;;;;;;;;;;;;;;6.63;100.00;91991.91;5070252;28;19928;-85
2021/12/06 04:38:34;;;;;;;;;;;;;;;6.33;100.00;91985.00;5070374;28;19924;-85
2021/12/06 04:41:03;;;;;;;;;;;;;;;6.43;100.00;91993.91;5070008;28;20376;-85
2021/12/06 04:43:30;;;;;;;;;;;;;;;6.52;100.00;91995.16;5048225;28;19924;-86
2021/12/06 04:45:57;;;;;;;;;;;;;;;6.52;100.00;91988.31;5069943;28;20426;-86
2021/12/06 04:48:23;;;;;;;;;;;;;;;6.60;100.00;91996.66;5070158;28;19932;-85
2021/12/06 04:50:50;;;;;;;;;;;;;;;6.61;100.00;91999.00;5069636;28;19929;-84
2021/12/06 04:53:19;;;;;;;;;;;;;;;6.62;100.00;91999.78;5070092;28;19924;-85
2021/12/06 04:55:48;;;;;;;;;;;;;;;6.67;100.00;91989.72;5070156;28;19994;-85
2021/12/06 04:58:18;;;;;;;;;;;;;;;6.75;100.00;91984.31;5069855;28;19936;-84
2021/12/06 05:00:48;;;;;;;;;;;;;;;6.81;100.00;91982.66;5070133;28;20037;-85
2021/12/06 05:03:16;;;;;;;;;;;;;;;6.85;100.00;91972.81;5069728;28;20445;-85
2021/12/06 05:05:46;;;;;;;;;;;;;;;6.89;100.00;91976.47;5070058;28;19974;-84
2021/12/06 05:08:16;;;;;;;;;;;;;;;6.90;100.00;91980.59;5069708;28;19924;-83
2021/12/06 05:10:43;;;;;;;;;;;;;;;6.95;100.00;91984.03;5069680;28;20402;-85
2021/12/06 05:13:10;;;;;;;;;;;;;;;7.02;100.00;91993.38;5069805;28;19928;-84
2021/12/06 05:15:38;;;;;;;;;;;;;;;7.00;100.00;91992.81;5069689;28;20376;-85
2021/12/06 05:18:06;;;;;;;;;;;;;;;7.02;100.00;91999.25;5069910;28;19929;-84
2021/12/06 05:20:34;;;;;;;;;;;;;;;7.09;100.00;92002.50;5069544;28;19924;-84
2021/12/06 05:23:01;;;;;;;;;;;;;;;7.20;100.00;92010.41;5069841;28;19931;-85
2021/12/06 05:25:28;;;;;;;;;;;;;;;7.22;100.00;92005.84;5069344;28;19928;-85
2021/12/06 05:27:56;;;;;;;;;;;;;;;7.32;100.00;92005.34;5069470;28;20303;-85
2021/12/06 05:30:24;;;;;;;;;;;;;;;7.32;100.00;91997.69;5069490;28;19925;-85
2021/12/06 05:32:53;;;;;;;;;;;;;;;7.39;100.00;92005.22;5069385;28;19925;-85
2021/12/06 05:35:19;;;;;;;;;;;;;;;7.29;100.00;91996.34;5069355;28;20008;-87
2021/12/06 05:37:47;;;;;;;;;;;;;;;7.30;100.00;91999.66;5070267;28;19947;-86
2021/12/06 05:40:17;;;;;;;;;;;;;;;7.28;100.00;91994.78;5073603;28;19928;-85
2021/12/06 05:42:44;;;;;;;;;;;;;;;7.29;100.00;92006.56;5073765;28;19924;-86
2021/12/06 05:45:11;;;;;;;;;;;;;;;7.29;100.00;92000.66;5073383;28;19929;-85
2021/12/06 05:47:39;;;;;;;;;;;;;;;7.33;100.00;92002.53;5073644;28;19925;-85
2021/12/06 05:50:08;;;;;;;;;;;;;;;7.30;100.00;91997.09;5073978;28;19929;-85
2021/12/06 05:52:35;;;;;;;;;;;;;;;7.38;100.00;91996.81;5074021;28;19951;-85
2021/12/06 05:55:01;;;;;;;;;;;;;;;7.42;100.00;91990.25;5073091;28;20284;-85
2021/12/06 05:57:28;;;;;;;;;;;;;;;7.41;100.00;91993.03;5073193;28;20486;-85
2021/12/06 05:59:55;;;;;;;;;;;;;;;7.43;100.00;91988.47;5073416;28;19924;-85
2021/12/06 06:02:22;;;;;;;;;;;;;;;7.44;100.00;91982.34;5073104;28;20387;-86
2021/12/06 06:04:49;;;;;;;;;;;;;;;7.47;100.00;91985.28;5073131;28;19979;-85
2021/12/06 06:07:17;;;;;;;;;;;;;;;7.48;100.00;91989.38;5073236;28;19932;-85
2021/12/06 06:09:43;;;;;;;;;;;;;;;7.52;100.00;91989.72;5072968;28;20307;-86
2021/12/06 06:12:10;;;;;;;;;;;;;;;7.51;100.00;91988.16;5073037;28;19975;-84
2021/12/06 06:14:36;;;;;;;;;;;;;;;7.57;100.00;91989.03;5072784;28;19962;-85
2021/12/06 06:17:09;;;;;;;;;;;;;;;7.58;100.00;91999.03;5072738;28;19925;-86
2021/12/06 06:19:37;;;;;;;;;;;;;;;7.58;100.00;92008.47;5073551;28;20341;-87
2021/12/06 06:22:03;;;;;;;;;;;;;;;7.59;100.00;92008.25;5073344;28;20026;-86
2021/12/06 06:24:31;;;;;;;;;;;;;;;7.60;100.00;92006.50;5073303;28;19947;-85
2021/12/06 06:26:58;;;;;;;;;;;;;;;7.62;100.00;92002.72;5072636;28;20306;-87
2021/12/06 06:29:25;;;;;;;;;;;;;;;7.69;100.00;92009.50;5072854;28;19971;-85
2021/12/06 06:31:51;;;;;;;;;;;;;;;7.62;100.00;92012.94;5072772;28;19925;-85
2021/12/06 06:34:18;;;;;;;;;;;;;;;7.66;100.00;92010.72;5072827;28;19924;-86
2021/12/06 06:36:45;;;;;;;;;;;;;;;7.57;100.00;92007.72;5072518;28;19924;-85
2021/12/06 06:39:12;;;;;;;;;;;;;;;7.61;100.00;92010.59;5072266;28;20399;-84
2021/12/06 06:41:40;;;;;;;;;;;;;;;7.70;100.00;92018.72;5072414;28;19924;-84
2021/12/06 06:44:07;;;;;;;;;;;;;;;7.78;100.00;92030.41;5072685;28;19947;-84
2021/12/06 06:46:34;;;;;;;;;;;;;;;7.82;100.00;92039.94;5072428;28;19936;-84
2021/12/06 06:49:00;;;;;;;;;;;;;;;7.92;100.00;92038.63;5072139;28;19970;-84
2021/12/06 06:51:28;;;;;;;;;;;;;;;8.01;100.00;92034.75;5071677;28;20387;-83
2021/12/06 06:53:55;;;;;;;;;;;;;;;8.06;100.00;92029.72;5067334;28;19960;-83
2021/12/06 06:56:22;;;;;;;;;;;;;;;8.11;100.00;92021.41;5070586;28;19924;-83
2021/12/06 06:58:50;;;;;;;;;;;;;;;8.19;100.00;92015.94;5071159;28;19961;-83
2021/12/06 07:01:17;;;;;;;;;;;;;;;8.16;100.00;92021.50;5072252;28;20273;-84
2021/12/06 07:03:44;;;;;;;;;;;;;;;8.24;100.00;92017.84;5072187;28;19925;-84
2021/12/06 07:06:10;;;;;;;;;;;;;;;8.23;100.00;92023.94;5071798;28;19928;-84
2021/12/06 07:08:37;;;;;;;;;;;;;;;8.26;100.00;92010.69;5072021;28;19924;-84
2021/12/06 07:11:05;;;;;;;;;;;;;;;8.29;100.00;92005.16;5072016;28;19929;-84
2021/12/06 07:13:37;;;;;;;;;;;;;;;8.29;100.00;92010.28;5071808;28;20530;-84
2021/12/06 07:16:05;;;;;;;;;;;;;;;8.29;100.00;92013.59;5071698;28;19980;-83
2021/12/06 07:18:32;;;;;;;;;;;;;;;8.28;100.00;92017.16;5071619;28;19925;-84
2021/12/06 07:20:58;;;;;;;;;;;;;;;8.35;100.00;92016.25;5071447;28;19924;-84
2021/12/06 07:23:25;;;;;;;;;;;;;;;8.37;100.00;92016.78;5071840;28;19924;-84
2021/12/06 07:25:52;;;;;;;;;;;;;;;8.39;100.00;92012.25;5071619;28;19924;-85
2021/12/06 07:28:18;;;;;;;;;;;;;;;8.42;100.00;92009.22;5071904;28;19932;-85
2021/12/06 07:30:45;;;;;;;;;;;;;;;8.41;100.00;92018.69;5071340;28;19924;-85
2021/12/06 07:33:13;;;;;;;;;;;;;;;8.42;100.00;92020.25;5071149;28;20372;-84
2021/12/06 07:35:39;;;;;;;;;;;;;;;8.41;100.00;92011.03;5071595;28;19958;-84
2021/12/06 07:38:07;;;;;;;;;;;;;;;8.41;100.00;92011.03;5071622;28;19925;-84
2021/12/06 07:40:34;;;;;;;;;;;;;;;8.40;100.00;92011.22;5071249;28;19924;-84
2021/12/06 07:43:00;;;;;;;;;;;;;;;8.41;100.00;92017.91;5071434;28;19936;-83
2021/12/06 07:45:28;;;;;;;;;;;;;;;8.47;100.00;92018.81;5071261;28;19924;-84
2021/12/06 07:47:54;;;;;;;;;;;;;;;8.44;100.00;92027.69;5071285;28;19951;-84
2021/12/06 07:50:22;;;;;;;;;;;;;;;8.39;100.00;92030.16;5071358;28;19924;-85
2021/12/06 07:52:50;;;;;;;;;;;;;;;8.42;100.00;92030.47;5070505;28;20387;-83
2021/12/06 07:55:17;;;;;;;;;;;;;;;8.38;100.00;92024.25;5070840;28;19931;-84
2021/12/06 07:57:44;;;;;;;;;;;;;;;8.38;100.00;92031.94;5070875;28;19934;-84
2021/12/06 08:00:13;;;;;;;;;;;;;;;8.33;100.00;92031.06;5071058;28;20007;-84
2021/12/06 08:02:40;;;;;;;;;;;;;;;8.29;100.00;92033.28;5069756;28;19931;-84
2021/12/06 08:07:49;;;;;;;;;;;;;;;8.36;100.00;92038.28;5070389;28;19933;-83
2021/12/06 08:10:15;;;;;;;;;;;;;;;8.34;100.00;92041.03;5070964;28;19925;-83
2021/12/06 08:12:42;;;;;;;;;;;;;;;8.38;100.00;92038.84;5071019;28;19928;-82
2021/12/06 08:15:09;;;;;;;;;;;;;;;8.43;100.00;92044.06;5070797;28;20307;-82
2021/12/06 08:17:36;;;;;;;;;;;;;;;8.46;100.00;92046.16;5070520;28;19928;-83
2021/12/06 08:20:03;;;;;;;;;;;;;;;8.40;100.00;92045.28;5070752;28;19925;-82
2021/12/06 08:22:31;;;;;;;;;;;;;;;8.43;100.00;92042.28;5070539;28;20303;-82
2021/12/06 08:24:59;;;;;;;;;;;;;;;8.45;100.00;92031.03;5070443;28;19925;-83
2021/12/06 08:27:26;;;;;;;;;;;;;;;8.48;100.00;92031.34;5070582;28;19924;-82
2021/12/06 08:29:52;;;;;;;;;;;;;;;8.55;100.00;92029.50;5070475;28;19924;-82
2021/12/06 08:32:19;;;;;;;;;;;;;;;8.62;100.00;92033.69;5070279;28;19931;-82
2021/12/06 08:34:46;;;;;;;;;;;;;;;8.66;100.00;92035.56;5070539;28;20007;-82
2021/12/06 08:37:12;;;;;;;;;;;;;;;8.71;100.00;92032.34;5070206;28;19928;-82
2021/12/06 08:39:40;;;;;;;;;;;;;;;8.76;100.00;92037.56;5070387;28;19924;-83
2021/12/06 08:42:08;;;;;;;;;;;;;;;8.80;100.00;92037.88;5070320;28;19924;-82
2021/12/06 08:44:35;;;;;;;;;;;;;;;8.90;100.00;92034.72;5070357;28;19948;-82
2021/12/06 08:47:02;;;;;;;;;;;;;;;8.94;100.00;92021.22;5070325;28;19928;-83
2021/12/06 08:49:29;;;;;;;;;;;;;;;8.97;100.00;92024.38;5069814;28;20388;-82
2021/12/06 08:51:57;;;;;;;;;;;;;;;9.01;100.00;92023.66;5069996;28;19924;-82
2021/12/06 08:54:26;;;;;;;;;;;;;;;9.05;100.00;92027.34;5069636;28;19924;-83
2021/12/06 08:56:54;;;;;;;;;;;;;;;8.92;100.00;92027.59;5069812;28;19929;-83
2021/12/06 08:59:23;;;;;;;;;;;;;;;8.90;100.00;92035.53;5069748;28;19929;-83
2021/12/06 09:01:49;;;;;;;;;;;;;;;8.91;100.00;92033.72;5069867;28;20022;-82
2021/12/06 09:04:16;;;;;;;;;;;;;;;8.97;100.00;92032.03;5070056;28;19936;-82
2021/12/06 09:06:44;;;;;;;;;;;;;;;8.99;100.00;92033.38;5069688;28;19924;-83
2021/12/06 09:09:12;;;;;;;;;;;;;;;8.99;100.00;92027.47;5069592;28;19924;-83
2021/12/06 09:11:40;;;;;;;;;;;;;;;9.00;100.00;92031.56;5070029;28;19971;-83
2021/12/06 09:14:06;;;;;;;;;;;;;;;9.01;100.00;92028.00;5069241;28;19931;-83
2021/12/06 09:16:36;;;;;;;;;;;;;;;9.06;100.00;92017.84;5070006;28;20297;-83
2021/12/06 09:19:03;;;;;;;;;;;;;;;9.13;100.00;92021.06;5069779;28;20368;-83
2021/12/06 09:21:30;;;;;;;;;;;;;;;9.24;100.00;92011.75;5069296;28;19929;-82
2021/12/06 09:24:00;;;;;;;;;;;;;;;9.33;100.00;92019.84;5068751;28;20139;-83
2021/12/06 09:26:28;;;;;;;;;;;;;;;9.41;100.00;92009.22;5069869;28;19935;-83
2021/12/06 09:28:54;;;;;;;;;;;;;;;9.46;100.00;92011.88;5069786;28;19980;-83
2021/12/06 09:31:21;;;;;;;;;;;;;;;9.52;100.00;92009.38;5069502;28;19924;-83
2021/12/06 09:33:49;;;;;;;;;;;;;;;9.58;100.00;92011.03;5064487;28;19925;-83
2021/12/06 09:36:15;;;;;;;;;;;;;;;9.65;100.00;92009.06;5068029;28;19970;-83
2021/12/06 09:38:44;;;;;;;;;;;;;;;9.68;100.00;92003.47;5069653;28;19924;-83
2021/12/06 09:41:12;;;;;;;;;;;;;;;9.71;100.00;92007.34;5069459;28;19970;-83
2021/12/06 09:43:39;;;;;;;;;;;;;;;9.70;100.00;91988.63;5069568;28;20287;-83
2021/12/06 09:46:07;;;;;;;;;;;;;;;9.71;100.00;91994.53;5069310;28;20437;-83
2021/12/06 09:48:34;;;;;;;;;;;;;;;9.73;100.00;91984.84;5069417;28;19931;-83
2021/12/06 09:51:04;;;;;;;;;;;;;;;9.74;100.00;91984.59;5069288;28;19932;-84
2021/12/06 09:53:33;;;;;;;;;;;;;;;9.76;100.00;91964.63;5069323;28;19931;-84
2021/12/06 09:56:00;;;;;;;;;;;;;;;9.73;100.00;91951.50;5069084;28;19931;-84
2021/12/06 09:58:30;;;;;;;;;;;;;;;9.68;100.00;91946.28;5069135;28;19928;-85
2021/12/06 10:00:58;;;;;;;;;;;;;;;9.69;100.00;91937.59;5069145;28;19924;-85
2021/12/06 10:03:28;;;;;;;;;;;;;;;9.75;100.00;91928.94;5069048;28;19932;-84
2021/12/06 10:06:01;;;;;;;;;;;;;;;9.66;100.00;91931.13;5069176;28;20411;-84
2021/12/06 10:08:29;;;;;;;;;;;;;;;9.72;100.00;91943.03;5069376;28;20023;-84
2021/12/06 10:10:55;;;;;;;;;;;;;;;9.75;100.00;91941.78;5069518;28;20025;-84
2021/12/06 10:13:22;;;;;;;;;;;;;;;9.79;100.00;91942.84;5069155;28;19929;-84
2021/12/06 10:15:50;;;;;;;;;;;;;;;9.84;100.00;91948.06;5069251;28;19928;-84
2021/12/06 10:18:19;;;;;;;;;;;;;;;9.87;100.00;91951.94;5069182;28;19979;-84
2021/12/06 10:20:46;;;;;;;;;;;;;;;9.94;100.00;91944.84;5069230;28;20051;-84
2021/12/06 10:23:14;;;;;;;;;;;;;;;10.03;100.00;91940.09;5069481;28;19925;-84
2021/12/06 10:25:44;;;;;;;;;;;;;;;10.05;100.00;91945.78;5070834;28;20400;-84
2021/12/06 10:28:10;;;;;;;;;;;;;;;10.08;100.00;91939.34;5072662;28;19931;-83
2021/12/06 10:30:39;;;;;;;;;;;;;;;10.14;100.00;91946.13;5072541;28;20402;-83
2021/12/06 10:33:06;;;;;;;;;;;;;;;10.19;100.00;91945.41;5072558;28;19925;-83
2021/12/06 10:35:33;;;;;;;;;;;;;;;10.19;100.00;91940.28;5072336;28;19928;-83
2021/12/06 10:38:00;;;;;;;;;;;;;;;10.13;100.00;91934.28;5072788;28;19932;-84
2021/12/06 10:40:29;;;;;;;;;;;;;;;10.18;100.00;91933.59;5072440;28;19924;-83
2021/12/06 10:42:58;;;;;;;;;;;;;;;10.18;100.00;91929.22;5072789;28;19977;-84
2021/12/06 10:45:27;;;;;;;;;;;;;;;10.16;100.00;91929.50;5072357;28;20398;-84
2021/12/06 10:48:07;;;;;;;;;;;;;;;10.19;100.00;91923.09;5072630;28;19937;-84
2021/12/06 10:50:35;;;;;;;;;;;;;;;10.22;100.00;91937.22;5072418;28;19982;-83
2021/12/06 10:53:03;;;;;;;;;;;;;;;10.25;100.00;91934.97;5072160;28;19925;-84
2021/12/06 10:55:30;;;;;;;;;;;;;;;10.21;100.00;91941.59;5072386;28;19939;-84
2021/12/06 10:57:59;;;;;;;;;;;;;;;10.23;100.00;91939.56;5072389;28;19931;-84
2021/12/06 11:00:33;;;;;;;;;;;;;;;10.25;100.00;91931.63;5072049;28;19924;-83
2021/12/06 11:03:01;;;;;;;;;;;;;;;10.18;100.00;91933.59;5072287;28;19932;-84
2021/12/06 11:05:30;;;;;;;;;;;;;;;10.19;100.00;91925.66;5072302;28;20595;-84
2021/12/06 11:07:57;;;;;;;;;;;;;;;10.21;100.00;91928.75;5072335;28;19925;-84
2021/12/06 11:10:24;;;;;;;;;;;;;;;10.20;100.00;91926.44;5072289;28;19925;-84
2021/12/06 11:13:11;;;;;;;;;;;;;;;10.11;100.00;91919.16;5071694;28;19928;-84
2021/12/06 11:15:51;;;;;;;;;;;;;;;10.08;100.00;91919.63;5072400;28;20269;-85
2021/12/06 11:18:29;;;;;;;;;;;;;;;10.01;100.00;91924.91;5071848;28;20414;-84
2021/12/06 11:20:55;;;;;;;;;;;;;;;9.99;100.00;91923.59;5071308;28;20277;-84
2021/12/06 11:23:22;;;;;;;;;;;;;;;9.96;100.00;91935.13;5072029;28;19946;-84
2021/12/06 11:25:54;;;;;;;;;;;;;;;10.02;100.00;91934.19;5071707;28;19997;-85
2021/12/06 11:28:25;;;;;;;;;;;;;;;10.05;100.00;91925.25;5071638;28;19931;-84
2021/12/06 11:30:58;;;;;;;;;;;;;;;10.05;100.00;91916.75;5071354;28;19924;-85
2021/12/06 11:33:28;;;;;;;;;;;;;;;10.10;100.00;91915.03;5071923;28;19928;-85
2021/12/06 11:35:55;;;;;;;;;;;;;;;10.12;100.00;91915.56;5071183;28;19970;-85
2021/12/06 11:38:21;;;;;;;;;;;;;;;10.14;100.00;91916.09;5071721;28;19951;-85
2021/12/06 11:40:48;;;;;;;;;;;;;;;10.20;100.00;91913.59;5071712;28;19926;-85
2021/12/06 11:43:16;;;;;;;;;;;;;;;10.26;100.00;91920.34;5071671;28;19935;-85
2021/12/06 11:45:46;;;;;;;;;;;;;;;10.27;100.00;91919.31;5066722;28;20391;-85
2021/12/06 11:48:15;;;;;;;;;;;;;;;10.24;100.00;91920.56;5069503;28;19924;-85
2021/12/06 11:50:44;;;;;;;;;;;;;;;10.28;100.00;91911.38;5071180;28;19983;-87
2021/12/06 11:53:11;;;;;;;;;;;;;;;10.25;100.00;91911.88;5070934;28;19928;-88
2021/12/06 11:55:43;;;;;;;;;;;;;;;10.12;100.00;91909.66;5070877;28;19925;-86
2021/12/06 11:58:20;;;;;;;;;;;;;;;10.15;100.00;91909.94;5071014;28;19936;-87
2021/12/06 12:00:47;;;;;;;;;;;;;;;10.07;100.00;91910.38;5070846;28;19932;-87
2021/12/06 12:03:29;;;;;;;;;;;;;;;10.06;100.00;91895.22;5070710;28;19925;-86
2021/12/06 12:05:56;;;;;;;;;;;;;;;9.99;100.00;91891.03;5070680;28;19929;-87
2021/12/06 12:08:22;;;;;;;;;;;;;;;9.97;100.00;91889.72;5070899;28;19944;-85
2021/12/06 12:10:49;;;;;;;;;;;;;;;9.99;100.00;91891.03;5070688;28;19929;-85
2021/12/06 12:13:23;;;;;;;;;;;;;;;9.92;100.00;91895.59;5070993;28;19986;-85
2021/12/06 12:15:49;;;;;;;;;;;;;;;9.89;100.00;91901.97;5070689;28;20101;-85
2021/12/06 12:18:17;;;;;;;;;;;;;;;9.91;100.00;91891.47;5070856;28;19929;-86
2021/12/06 12:20:44;;;;;;;;;;;;;;;9.83;100.00;91897.00;5070628;28;20270;-85
2021/12/06 12:23:11;;;;;;;;;;;;;;;9.79;100.00;91891.56;5070371;28;19925;-87
2021/12/06 12:25:44;;;;;;;;;;;;;;;9.75;100.00;91891.28;5070331;28;19928;-86
2021/12/06 12:28:19;;;;;;;;;;;;;;;9.61;100.00;91893.41;5070393;28;19964;-85
2021/12/06 12:30:46;;;;;;;;;;;;;;;9.62;100.00;91901.84;5070103;28;19931;-85
2021/12/06 12:33:13;;;;;;;;;;;;;;;9.62;100.00;91900.06;5069977;28;19924;-85
2021/12/06 12:35:42;;;;;;;;;;;;;;;9.60;100.00;91903.88;5070581;28;19928;-86
2021/12/06 12:38:11;;;;;;;;;;;;;;;9.60;100.00;91898.75;5059488;28;19936;-87
2021/12/06 12:40:40;;;;;;;;;;;;;;;9.33;100.00;91879.69;5060178;28;20287;-86
2021/12/06 12:43:08;;;;;;;;;;;;;;;9.55;100.00;91911.50;5060880;28;20011;-86
2021/12/06 12:45:37;;;;;;;;;;;;;;;9.49;100.00;91920.88;5058456;28;19925;-89
2021/12/06 12:48:03;;;;;;;;;;;;;;;9.46;100.00;91924.72;5058674;28;19943;-87
2021/12/06 12:50:30;;;;;;;;;;;;;;;9.44;100.00;91923.41;5060144;28;19925;-87
2021/12/06 12:53:06;;;;;;;;;;;;;;;9.41;100.00;91932.34;5059278;28;19983;-87
2021/12/06 12:55:34;;;;;;;;;;;;;;;9.44;100.00;91938.78;5060093;28;19929;-86
2021/12/06 12:58:08;;;;;;;;;;;;;;;9.20;100.00;91933.78;5058006;28;20311;-88
2021/12/06 13:00:43;;;;;;;;;;;;;;;9.21;100.00;91922.53;5056433;28;20446;-84